Corgary, United Kingdom
Current Conditions -  °F | °C
As of 12:00 PM on Wednesday 28 Jan 2015 (Local Time) from EISG Reporting Station
Few Clouds Few Clouds  
Wind Chill: 32°   Ceiling: Unl
Heat Index: 43°   Visibility: 6mi
Dew Point: 30°   Wind: 33mph
Humidity: 61%   Direction: 280°W
Pressure: 29.56"   Gusts: 47mph
Location:  54.43°N, 8.05°W
Report Text: EISG 281200Z 28029G41KT 9999 FEW018 06/M01 Q1001
Loading
Personal Weather Stations






























Interactive Weather Map New forecast layout! Learn more

10-Day Weather Forecast

Advertisements
Track Severe Weather on mobile